עמוד ראשי
METAR-TAF:

METAR-TAF

שדות תעופה :

Kwethluk, אלסקה, ארצות הברית

קו רוחב: 60-47-25N, קו אורך: 161-26-37W, גובה: 9מטר

תצפית מזג אוויר נוכחית

הדו"ח נערך לפני 53דקות, בשעה 05:56 UTC
רוח 4קשר מכיוון מערב
טמפרטורת 15 צלסיוס
לחות 55%
לחץ 1024 hPa
ראות: 16.1קילומטר
שמיים נקיים

METAR: PFKW 140556Z AUTO 26004KT 10SM CLR 15/06 A3024 RMK AO2 SLP241 T01500061 10156 20128 58003

זמן: 22:49 (06:49 UTC)


TAF: חסר

תצפיות ותחזיות מזג אוויר לגבי יותר מ- 4,000 שדות תעופה ברחבי העולם. דוחות METAR ו- TAF.

התחנות הזמינות מסומנות בנקודות צהובות ואדומות על גבי המפה.

העבר את העכבר לנקודה הצבעונית על מנת לראות את שם התחנה.

לאחר מכן, לחץ כדי לראות את תוכן ואת תחזיות מזג האוויר.

כדי לשנות את המפה: לחץ על הכפתורים הירוקים עם הפלוס השחור כדי להתקרב; על הכפתור הירוק עם המקף כדי להתרחק; או בחיצים הירוקים למפות סמוכות.


METAR-TAF: